Time;durP1;ratioP1;P1;durP2;ratioP2;P2;SDS_P1;SDS_P2;PMS_P1;PMS_P2;Temp;Humidity;BMP_temperature;BMP_pressure;BME280_temperature;BME280_humidity;BME280_pressure;Samples;Min_cycle;Max_cycle;Signal;HPM_P1;HPM_P2
2021/10/25 00:01:59;;;;;;;12.57;8.27;;;230.70;1612.80;;;;;;5096347;28;20085;-68
2021/10/25 00:04:25;;;;;;;14.77;8.18;;;230.70;1587.20;;;;;;5096185;28;20028;-65
2021/10/25 00:06:51;;;;;;;17.73;9.05;;;230.80;1587.20;;;;;;5096696;28;20020;-63
2021/10/25 00:09:17;;;;;;;16.55;9.25;;;230.70;1612.80;;;;;;5095978;28;20027;-62
2021/10/25 00:11:44;;;;;;;19.15;9.88;;;230.70;1612.80;;;;;;5096012;28;20028;-63
2021/10/25 00:14:11;;;;;;;16.20;9.73;;;230.70;1612.80;;;;;;5096487;28;20020;-62
2021/10/25 00:16:37;;;;;;;19.77;10.55;;;230.70;1612.80;;;;;;5096188;28;20111;-65
2021/10/25 00:19:04;;;;;;;18.92;9.10;;;230.60;1612.80;;;;;;5096054;28;20069;-67
2021/10/25 00:21:30;;;;;;;18.02;9.57;;;230.70;1612.80;;;;;;5096028;28;20035;-66
2021/10/25 00:23:56;;;;;;;24.30;12.07;;;230.60;1612.80;;;;;;5095842;28;20035;-66
2021/10/25 00:26:21;;;;;;;18.58;10.55;;;230.60;1612.80;;;;;;5095812;28;20024;-66
2021/10/25 00:28:47;;;;;;;18.10;10.52;;;230.60;1612.80;;;;;;5095660;28;20466;-65
2021/10/25 00:31:13;;;;;;;17.70;11.05;;;230.60;1612.80;;;;;;5094508;28;20107;-67
2021/10/25 00:33:40;;;;;;;20.60;11.15;;;230.50;1612.80;;;;;;5095834;28;20032;-67
2021/10/25 00:36:06;;;;;;;24.65;11.85;;;230.60;1612.80;;;;;;5095626;28;20084;-66
2021/10/25 00:38:32;;;;;;;20.02;10.52;;;230.50;1612.80;;;;;;5095727;28;20023;-66
2021/10/25 00:40:58;;;;;;;21.90;10.77;;;230.40;1612.80;;;;;;5095445;28;20107;-67
2021/10/25 00:43:24;;;;;;;19.98;10.25;;;230.60;1612.80;;;;;;5095240;28;20041;-66
2021/10/25 00:45:50;;;;;;;25.27;12.20;;;230.40;1638.40;;;;;;5095379;28;20020;-63
2021/10/25 00:48:16;;;;;;;15.52;10.10;;;205.70;1612.80;;;;;;5095752;28;20374;-65
2021/10/25 00:50:42;;;;;;;20.50;10.57;;;230.50;1612.80;;;;;;5095284;28;20435;-68
2021/10/25 00:53:09;;;;;;;20.73;10.45;;;230.40;1638.40;;;;;;5095379;28;20024;-68
2021/10/25 00:55:39;;;;;;;21.00;10.00;;;205.70;1638.40;;;;;;5095342;28;20028;-63
2021/10/25 00:58:07;;;;;;;22.10;11.20;;;230.40;1612.80;;;;;;5095477;28;20374;-68
2021/10/25 01:00:33;;;;;;;22.77;13.02;;;205.70;1638.40;;;;;;5095385;28;20110;-68
2021/10/25 01:02:59;;;;;;;28.30;14.82;;;205.70;1638.40;;;;;;5095061;28;20028;-68
2021/10/25 01:05:25;;;;;;;26.00;15.02;;;230.40;1612.80;;;;;;5095245;28;20025;-63
2021/10/25 01:07:53;;;;;;;24.45;14.63;;;205.70;1638.40;;;;;;5095202;28;20534;-68
2021/10/25 01:10:18;;;;;;;25.08;13.35;;;205.60;1638.40;;;;;;5095027;28;20091;-68
2021/10/25 01:12:45;;;;;;;23.85;13.15;;;205.70;1638.40;;;;;;5094992;28;20465;-68
2021/10/25 01:15:10;;;;;;;22.92;11.68;;;205.60;1638.40;;;;;;5094819;28;20024;-67
2021/10/25 01:17:36;;;;;;;22.15;11.93;;;205.50;1638.40;;;;;;5094980;28;20081;-66
2021/10/25 01:20:04;;;;;;;18.67;11.05;;;205.60;1638.40;;;;;;5095152;28;20405;-69
2021/10/25 01:22:30;;;;;;;18.80;9.90;;;205.50;1664.00;;;;;;5094345;28;20032;-64
2021/10/25 01:24:56;;;;;;;19.52;9.57;;;205.50;1612.80;;;;;;5094568;28;20032;-68
2021/10/25 01:27:22;;;;;;;21.08;10.52;;;205.50;1638.40;;;;;;5095206;28;20465;-67
2021/10/25 01:29:48;;;;;;;17.25;9.23;;;205.50;1664.00;;;;;;5094690;28;20374;-67
2021/10/25 01:32:15;;;;;;;15.35;8.13;;;205.40;1612.80;;;;;;5094694;28;20458;-68
2021/10/25 01:34:41;;;;;;;14.13;8.05;;;205.30;1664.00;;;;;;5094468;28;20028;-68
2021/10/25 01:37:08;;;;;;;16.00;7.72;;;205.30;1689.60;;;;;;5094714;28;20028;-68
2021/10/25 01:39:35;;;;;;;16.00;9.18;;;205.30;1612.80;;;;;;5094042;28;20021;-67
2021/10/25 01:42:01;;;;;;;16.35;9.55;;;205.00;1664.00;;;;;;5093850;28;20042;-68
2021/10/25 01:44:27;;;;;;;14.63;8.55;;;205.10;1689.60;;;;;;5094846;28;20181;-68
2021/10/25 01:46:53;;;;;;;15.85;9.35;;;205.10;1612.80;;;;;;5076061;28;20537;-67
2021/10/25 01:49:18;;;;;;;12.93;8.75;;;205.00;1689.60;;;;;;5094128;28;20052;-67
2021/10/25 01:51:44;;;;;;;17.30;8.75;;;205.00;1689.60;;;;;;5093944;28;20133;-68
2021/10/25 01:54:11;;;;;;;15.00;8.85;;;205.00;1612.80;;;;;;5094182;28;20063;-65
2021/10/25 01:56:37;;;;;;;18.00;9.65;;;204.90;1664.00;;;;;;5094093;28;20124;-65
2021/10/25 01:59:09;;;;;;;20.75;10.07;;;204.80;1689.60;;;;;;5094221;28;20118;-64
2021/10/25 02:01:35;;;;;;;19.48;9.57;;;204.80;1664.00;;;;;;5093963;28;20036;-64
2021/10/25 02:04:05;;;;;;;20.23;10.85;;;180.10;1715.20;;;;;;5094220;28;20417;-64
2021/10/25 02:06:31;;;;;;;15.27;9.45;;;204.80;1638.40;;;;;;5094735;28;20020;-63
2021/10/25 02:08:56;;;;;;;16.73;10.73;;;180.00;1715.20;;;;;;5093912;28;20024;-63
2021/10/25 02:11:22;;;;;;;17.63;9.40;;;180.10;1715.20;;;;;;5093869;28;20554;-65
2021/10/25 02:13:48;;;;;;;18.15;11.07;;;180.10;1638.40;;;;;;5094227;28;20081;-64
2021/10/25 02:16:16;;;;;;;20.52;10.65;;;179.80;1740.80;;;;;;5093903;28;20493;-64
2021/10/25 02:18:42;;;;;;;18.95;10.30;;;179.90;1689.60;;;;;;5094073;28;20084;-67
2021/10/25 02:21:09;;;;;;;19.70;9.60;;;179.70;1689.60;;;;;;5094009;28;20063;-65
2021/10/25 02:23:35;;;;;;;19.67;10.73;;;179.70;1766.40;;;;;;5093700;28;20051;-65
2021/10/25 02:26:01;;;;;;;18.20;10.48;;;179.70;1766.40;;;;;;5094083;28;20399;-65
2021/10/25 02:28:27;;;;;;;19.55;10.70;;;179.70;1740.80;;;;;;5093849;28;20028;-66
2021/10/25 02:30:54;;;;;;;20.70;11.45;;;179.80;1740.80;;;;;;5093918;28;20100;-62
2021/10/25 02:33:21;;;;;;;22.08;10.85;;;179.70;1740.80;;;;;;5093878;28;20020;-61
2021/10/25 02:35:48;;;;;;;17.27;10.48;;;179.80;1740.80;;;;;;5075711;28;20589;-62
2021/10/25 02:38:14;;;;;;;20.63;9.90;;;179.80;1740.80;;;;;;5093526;28;20027;-66
2021/10/25 02:40:40;;;;;;;15.43;9.10;;;179.70;1715.20;;;;;;5093567;28;20374;-66
2021/10/25 02:43:07;;;;;;;21.00;10.85;;;179.80;1715.20;;;;;;5075686;28;20039;-65
2021/10/25 02:45:33;;;;;;;15.25;9.38;;;179.70;1740.80;;;;;;5093948;28;20093;-66
2021/10/25 02:47:59;;;;;;;15.35;9.90;;;179.70;1715.20;;;;;;5093445;28;20058;-65
2021/10/25 02:50:25;;;;;;;16.00;9.52;;;179.70;1715.20;;;;;;5093531;28;20139;-66
2021/10/25 02:52:52;;;;;;;18.50;9.43;;;179.70;1715.20;;;;;;5093778;28;20020;-65
2021/10/25 02:55:18;;;;;;;17.88;10.07;;;179.70;1740.80;;;;;;5097074;28;20420;-66
2021/10/25 02:57:43;;;;;;;16.80;10.68;;;179.70;1740.80;;;;;;5097163;28;20028;-66
2021/10/25 03:00:12;;;;;;;22.00;11.55;;;179.60;1715.20;;;;;;5097375;28;20039;-66
2021/10/25 03:02:39;;;;;;;20.17;11.88;;;179.60;1715.20;;;;;;5097623;28;20119;-65
2021/10/25 03:05:05;;;;;;;17.58;11.23;;;179.70;1715.20;;;;;;5097471;28;20031;-64
2021/10/25 03:07:31;;;;;;;22.98;12.10;;;179.70;1715.20;;;;;;5097570;28;20032;-69
2021/10/25 03:09:57;;;;;;;33.33;12.75;;;179.70;1740.80;;;;;;5097166;28;20099;-66
2021/10/25 03:12:23;;;;;;;22.70;11.02;;;179.70;1740.80;;;;;;5097422;28;20503;-66
2021/10/25 03:14:49;;;;;;;23.08;10.68;;;179.80;1740.80;;;;;;5097405;28;20024;-66
2021/10/25 03:17:14;;;;;;;17.92;9.55;;;179.80;1740.80;;;;;;5097263;28;20097;-65
2021/10/25 03:19:41;;;;;;;17.50;9.68;;;179.80;1740.80;;;;;;5097830;28;20031;-66
2021/10/25 03:22:07;;;;;;;18.77;9.95;;;179.80;1740.80;;;;;;5097327;28;20040;-66
2021/10/25 03:24:34;;;;;;;20.13;10.55;;;179.80;1715.20;;;;;;5097121;28;20355;-66
2021/10/25 03:27:00;;;;;;;21.13;9.80;;;179.80;1740.80;;;;;;5097026;28;20058;-68
2021/10/25 03:29:27;;;;;;;15.27;9.90;;;179.80;1740.80;;;;;;5096981;28;20028;-69
2021/10/25 03:31:53;;;;;;;25.83;11.85;;;179.70;1740.80;;;;;;5096945;28;20035;-65
2021/10/25 03:34:19;;;;;;;21.67;10.32;;;179.70;1740.80;;;;;;5097138;28;20377;-63
2021/10/25 03:36:47;;;;;;;29.77;12.93;;;179.80;1766.40;;;;;;5096949;28;20024;-64
2021/10/25 03:39:14;;;;;;;33.05;13.23;;;179.80;1740.80;;;;;;5096769;28;20016;-67
2021/10/25 03:41:44;;;;;;;24.98;13.00;;;179.90;1740.80;;;;;;5096592;28;20125;-64
2021/10/25 03:44:15;;;;;;;24.30;12.90;;;179.90;1740.80;;;;;;5097233;28;20024;-67
2021/10/25 03:46:57;;;;;;;24.95;12.52;;;179.80;1740.80;;;;;;5096573;28;20050;-67
2021/10/25 03:49:38;;;;;;;23.23;11.45;;;179.80;1766.40;;;;;;5096435;28;20500;-65
2021/10/25 03:52:14;;;;;;;24.42;10.50;;;179.70;1766.40;;;;;;5096681;28;20031;-66
2021/10/25 03:54:48;;;;;;;23.23;10.73;;;179.70;1766.40;;;;;;5096311;28;20109;-66
2021/10/25 04:00:37;;;;;;;28.23;11.88;;;179.70;1766.40;;;;;;5096742;28;20138;-66
2021/10/25 04:30:15;;;;;;;21.42;12.70;;;179.80;1715.20;;;;;;4936430;29;20418;-68
2021/10/25 04:32:41;;;;;;;19.02;10.65;;;179.90;1689.60;;;;;;4936172;29;20066;-67
2021/10/25 04:35:07;;;;;;;19.17;11.38;;;179.80;1689.60;;;;;;4936579;29;20032;-68
2021/10/25 04:37:33;;;;;;;26.83;13.30;;;179.70;1715.20;;;;;;4936258;29;20042;-68
2021/10/25 04:39:59;;;;;;;22.38;13.23;;;179.70;1715.20;;;;;;4936099;29;20032;-65
2021/10/25 04:42:25;;;;;;;25.30;14.25;;;179.70;1715.20;;;;;;4936183;29;20434;-69
2021/10/25 04:44:52;;;;;;;32.25;16.38;;;179.60;1740.80;;;;;;4936103;29;20031;-70
2021/10/25 04:47:18;;;;;;;27.70;14.10;;;179.70;1740.80;;;;;;4936109;29;20040;-69
2021/10/25 04:49:43;;;;;;;26.75;14.57;;;179.50;1740.80;;;;;;4935868;29;20533;-64
2021/10/25 04:52:10;;;;;;;22.95;12.13;;;179.40;1766.40;;;;;;4936248;29;20591;-67
2021/10/25 04:54:37;;;;;;;24.88;13.32;;;179.30;1766.40;;;;;;4993508;28;20043;-67
2021/10/25 04:57:04;;;;;;;28.52;13.02;;;179.30;1792.00;;;;;;4993874;28;20033;-68
2021/10/25 04:59:30;;;;;;;26.17;12.30;;;179.30;1792.00;;;;;;5056703;28;20037;-67
2021/10/25 05:01:56;;;;;;;22.85;11.55;;;179.20;1792.00;;;;;;5094990;28;20032;-67
2021/10/25 05:04:22;;;;;;;25.48;11.85;;;179.20;1792.00;;;;;;5095364;28;20035;-63
2021/10/25 05:06:48;;;;;;;30.25;13.43;;;179.20;1792.00;;;;;;5095302;28;20496;-67
2021/10/25 05:09:14;;;;;;;30.33;15.60;;;179.20;1792.00;;;;;;5094996;28;20031;-67
2021/10/25 05:11:40;;;;;;;25.77;14.52;;;179.30;1792.00;;;;;;5095056;28;20027;-65
2021/10/25 05:14:07;;;;;;;29.35;16.20;;;179.20;1817.60;;;;;;5094930;28;20480;-67
2021/10/25 05:16:33;;;;;;;22.60;12.02;;;179.20;1792.00;;;;;;5094463;28;20028;-63
2021/10/25 05:18:59;;;;;;;24.85;13.13;;;179.20;1817.60;;;;;;5095080;28;20107;-65
2021/10/25 05:21:25;;;;;;;27.25;12.38;;;179.20;1817.60;;;;;;5094825;28;20054;-66
2021/10/25 05:23:52;;;;;;;27.50;13.25;;;179.20;1817.60;;;;;;5094721;28;20031;-65
2021/10/25 05:26:17;;;;;;;35.25;17.63;;;179.30;1817.60;;;;;;5094837;28;20047;-64
2021/10/25 05:28:43;;;;;;;39.55;20.42;;;179.20;1817.60;;;;;;5094840;28;20393;-65
2021/10/25 05:31:12;;;;;;;59.97;23.98;;;179.20;1817.60;;;;;;5094699;28;20032;-66
2021/10/25 05:33:41;;;;;;;94.72;35.75;;;179.20;1843.20;;;;;;5094521;28;20426;-64
2021/10/25 05:36:09;;;;;;;98.28;40.70;;;179.20;1817.60;;;;;;5094692;28;20103;-65
2021/10/25 05:38:36;;;;;;;104.88;41.05;;;179.30;1843.20;;;;;;5094604;28;20020;-64
2021/10/25 05:41:03;;;;;;;86.53;37.47;;;179.30;1843.20;;;;;;5095010;28;20401;-64
2021/10/25 05:43:29;;;;;;;66.07;27.80;;;179.30;1843.20;;;;;;5094313;28;20118;-64
2021/10/25 05:45:56;;;;;;;44.70;20.90;;;179.30;1817.60;;;;;;5094253;28;20016;-65
2021/10/25 05:48:22;;;;;;;44.05;18.52;;;179.30;1843.20;;;;;;5094273;28;20375;-64
2021/10/25 05:50:47;;;;;;;42.83;16.98;;;179.40;1843.20;;;;;;5094147;28;20040;-64
2021/10/25 05:53:14;;;;;;;32.75;15.50;;;179.40;1843.20;;;;;;5094436;28;20093;-65
2021/10/25 05:55:42;;;;;;;32.22;15.63;;;179.40;1817.60;;;;;;5094313;28;20107;-66
2021/10/25 05:58:22;;;;;;;29.38;15.40;;;179.40;1843.20;;;;;;5094069;28;20034;-67
2021/10/25 06:01:01;;;;;;;35.50;17.58;;;179.50;1817.60;;;;;;5093467;28;20095;-64
2021/10/25 06:03:29;;;;;;;34.92;18.83;;;179.50;1843.20;;;;;;5091749;28;20072;-66
2021/10/25 06:05:55;;;;;;;36.33;19.73;;;179.50;1817.60;;;;;;5092568;28;20020;-66
2021/10/25 06:08:21;;;;;;;43.83;21.40;;;179.50;1817.60;;;;;;5093366;28;20452;-67
2021/10/25 06:10:48;;;;;;;36.53;20.90;;;179.50;1843.20;;;;;;5075072;28;20037;-65
2021/10/25 06:18:50;;;;;;;31.65;16.35;;;179.60;1817.60;;;;;;4992442;28;20089;-67
2021/10/25 06:21:16;;;;;;;28.50;15.65;;;179.70;1843.20;;;;;;4992282;28;20035;-63
2021/10/25 06:23:42;;;;;;;24.70;15.25;;;179.70;1817.60;;;;;;4992208;28;20026;-63
2021/10/25 06:26:08;;;;;;;28.10;13.68;;;179.80;1817.60;;;;;;4992889;28;20121;-62
2021/10/25 06:28:34;;;;;;;21.13;13.15;;;179.80;1843.20;;;;;;4992323;28;20436;-68
2021/10/25 06:31:04;;;;;;;23.27;12.43;;;179.90;1817.60;;;;;;4992533;28;20026;-63
2021/10/25 06:33:35;;;;;;;23.40;12.00;;;180.00;1817.60;;;;;;4992096;28;20034;-63
2021/10/25 06:38:31;;;;;;;25.30;11.68;;;180.00;1843.20;;;;;;4992364;28;20512;-67
2021/10/25 06:40:59;;;;;;;27.48;12.95;;;180.10;1817.60;;;;;;4992239;28;20035;-69
2021/10/25 06:43:24;;;;;;;29.25;12.38;;;204.80;1817.60;;;;;;4992109;28;20050;-63
2021/10/25 06:45:50;;;;;;;25.83;14.27;;;204.90;1817.60;;;;;;4991993;28;20053;-62
2021/10/25 06:48:16;;;;;;;24.40;12.77;;;204.90;1817.60;;;;;;4992279;28;20031;-63
2021/10/25 06:50:42;;;;;;;27.75;13.48;;;205.00;1817.60;;;;;;4991781;28;20069;-62
2021/10/25 06:53:08;;;;;;;22.08;12.25;;;205.00;1817.60;;;;;;5056753;28;20049;-65
2021/10/25 06:55:35;;;;;;;22.38;13.38;;;205.10;1817.60;;;;;;5093565;28;20024;-64
2021/10/25 06:58:02;;;;;;;25.80;14.13;;;205.10;1843.20;;;;;;5093587;28;20026;-67
2021/10/25 07:00:28;;;;;;;26.38;14.77;;;205.20;1817.60;;;;;;5093583;28;20074;-65
2021/10/25 07:02:53;;;;;;;25.92;15.00;;;205.30;1817.60;;;;;;5093610;28;20035;-68
2021/10/25 07:05:20;;;;;;;22.77;12.52;;;205.30;1817.60;;;;;;5093686;28;20028;-68
2021/10/25 07:07:46;;;;;;;22.42;13.18;;;205.40;1817.60;;;;;;5093368;28;20031;-68
2021/10/25 07:10:12;;;;;;;22.00;12.05;;;205.50;1817.60;;;;;;5093487;28;20039;-67
2021/10/25 07:12:39;;;;;;;19.88;11.02;;;205.70;1817.60;;;;;;5093521;28;20105;-66
2021/10/25 07:15:05;;;;;;;21.42;10.20;;;230.40;1792.00;;;;;;5093302;28;20030;-65
2021/10/25 07:20:20;;;;;;;27.15;11.13;;;230.50;1817.60;;;;;;5093056;28;20056;-66
2021/10/25 08:11:08;;;;;;;;;;;256.80;1766.40;;;;;;5095459;28;20416;-66
2021/10/25 08:13:40;;;;;;;26.00;12.82;;;281.60;1766.40;;;;;;5076774;28;19904;-64
2021/10/25 08:16:21;;;;;;;29.92;14.40;;;281.60;1792.00;;;;;;5092340;28;20099;-66
2021/10/25 08:21:20;;;;;;;31.63;14.35;;;282.00;1792.00;;;;;;5094838;28;20051;-65
2021/10/25 08:23:48;;;;;;;26.20;13.45;;;282.10;1766.40;;;;;;5091818;28;20036;-66
2021/10/25 08:26:14;;;;;;;28.65;13.27;;;282.20;1766.40;;;;;;5094241;28;20103;-62
2021/10/25 08:28:40;;;;;;;25.13;12.68;;;282.30;1740.80;;;;;;5094440;28;20099;-62
2021/10/25 08:31:09;;;;;;;22.00;12.13;;;282.40;1740.80;;;;;;5094498;28;20024;-66
2021/10/25 08:41:30;;;;;;;17.83;8.75;;;307.50;1740.80;;;;;;5092568;28;20081;-64
2021/10/25 08:43:58;;;;;;;14.07;8.70;;;307.60;1740.80;;;;;;5093744;28;20034;-63
2021/10/25 08:46:26;;;;;;;13.40;8.93;;;307.80;1715.20;;;;;;5094056;28;20031;-65
2021/10/25 08:48:53;;;;;;;15.05;9.40;;;307.90;1740.80;;;;;;5093586;28;20485;-65
2021/10/25 08:51:20;;;;;;;15.15;8.45;;;308.00;1715.20;;;;;;5092834;28;20099;-66
2021/10/25 08:53:47;;;;;;;14.48;9.13;;;308.10;1715.20;;;;;;5093870;28;20028;-65
2021/10/25 08:56:22;;;;;;;18.42;8.70;;;332.80;1740.80;;;;;;5093943;28;20107;-62
2021/10/25 08:58:51;;;;;;;17.95;9.98;;;332.90;1715.20;;;;;;5092099;28;20028;-62
2021/10/25 09:01:28;;;;;;;15.60;8.65;;;333.00;1715.20;;;;;;5093805;28;20050;-63
2021/10/25 09:04:07;;;;;;;17.23;9.10;;;333.10;1715.20;;;;;;5093630;28;20027;-64
2021/10/25 09:06:47;;;;;;;16.33;8.90;;;333.30;1689.60;;;;;;5092877;28;20024;-64
2021/10/25 09:09:15;;;;;;;14.07;8.65;;;333.30;1664.00;;;;;;5092359;28;20097;-65
2021/10/25 09:11:59;;;;;;;18.63;8.05;;;333.40;1664.00;;;;;;5090706;28;20020;-63
2021/10/25 09:14:25;;;;;;;11.10;7.72;;;333.50;1664.00;;;;;;5091519;28;20048;-66
2021/10/25 09:17:00;;;;;;;16.83;8.63;;;333.70;1664.00;;;;;;5093566;28;20047;-66
2021/10/25 09:19:29;;;;;;;14.57;7.20;;;358.40;1638.40;;;;;;5093958;28;20111;-66
2021/10/25 09:22:11;;;;;;;12.98;6.32;;;358.50;1638.40;;;;;;5093707;28;20025;-66
2021/10/25 09:24:38;;;;;;;23.10;6.40;;;358.50;1612.80;;;;;;5092749;28;20032;-64
2021/10/25 09:27:06;;;;;;;16.67;7.03;;;358.60;1587.20;;;;;;5093806;28;20466;-66
2021/10/25 09:29:36;;;;;;;13.43;6.93;;;358.70;1587.20;;;;;;5091500;28;20103;-64
2021/10/25 09:32:12;;;;;;;10.20;5.78;;;358.80;1587.20;;;;;;5092429;28;20016;-66
2021/10/25 09:34:53;;;;;;;15.07;7.03;;;358.90;1561.60;;;;;;5086681;28;20128;-65
2021/10/25 09:37:27;;;;;;;12.48;6.25;;;359.00;1536.00;;;;;;5089936;28;20625;-63
2021/10/25 09:39:56;;;;;;;12.50;6.85;;;359.10;1510.40;;;;;;5092013;28;20435;-65
2021/10/25 09:50:47;;;;;;;10.63;7.25;;;384.00;1484.80;;;;;;5090829;28;20059;-64
2021/10/25 09:53:14;;;;;;;18.13;6.85;;;384.10;1510.40;;;;;;5090740;28;20109;-65
2021/10/25 09:55:47;;;;;;;11.82;6.85;;;384.20;1484.80;;;;;;5093767;28;20052;-62
2021/10/25 09:58:18;;;;;;;9.88;6.55;;;384.30;1459.20;;;;;;5091900;28;20466;-62
2021/10/25 10:00:45;;;;;;;8.27;6.15;;;384.40;1484.80;;;;;;5093417;28;20430;-62
2021/10/25 10:03:12;;;;;;;9.90;6.68;;;384.50;1433.60;;;;;;5092816;28;20032;-62
2021/10/25 10:05:41;;;;;;;12.32;5.85;;;384.60;1433.60;;;;;;5093685;28;20031;-62
2021/10/25 10:08:09;;;;;;;12.43;5.60;;;384.70;1433.60;;;;;;5093378;28;20103;-61
2021/10/25 10:10:35;;;;;;;10.43;6.25;;;384.80;1433.60;;;;;;5093071;28;20099;-60
2021/10/25 10:13:03;;;;;;;10.90;6.03;;;384.90;1459.20;;;;;;5092541;28;20032;-62
2021/10/25 10:15:31;;;;;;;17.42;5.68;;;409.60;1459.20;;;;;;5093050;28;20055;-61
2021/10/25 10:18:10;;;;;;;11.27;5.25;;;409.60;1433.60;;;;;;5092261;28;20032;-61
2021/10/25 10:20:41;;;;;;;13.55;5.38;;;409.80;1408.00;;;;;;5092291;28;20534;-66
2021/10/25 10:23:11;;;;;;;12.10;5.57;;;409.80;1408.00;;;;;;5093050;28;20047;-61
2021/10/25 10:25:56;;;;;;;20.40;5.90;;;409.90;1408.00;;;;;;5093442;28;20455;-62
2021/10/25 10:28:37;;;;;;;12.13;4.95;;;409.90;1408.00;;;;;;5093680;28;20137;-61
2021/10/25 10:31:10;;;;;;;13.98;5.35;;;410.00;1382.40;;;;;;5093443;28;20030;-61
2021/10/25 10:33:45;;;;;;;7.78;4.93;;;410.00;1356.80;;;;;;5093219;28;20032;-62
2021/10/25 10:36:15;;;;;;;10.70;5.35;;;410.00;1382.40;;;;;;5093671;28;20020;-62
2021/10/25 10:38:47;;;;;;;17.23;5.32;;;410.10;1356.80;;;;;;5093408;28;20024;-62
2021/10/25 10:41:15;;;;;;;11.20;6.20;;;410.20;1356.80;;;;;;5093165;28;20432;-67
2021/10/25 10:43:40;;;;;;;9.07;5.68;;;410.20;1382.40;;;;;;5093249;28;20043;-67
2021/10/25 10:46:17;;;;;;;12.43;4.90;;;410.30;1382.40;;;;;;5093121;28;20028;-66
2021/10/25 10:48:45;;;;;;;8.88;4.60;;;410.30;1356.80;;;;;;5091775;28;20020;-66
2021/10/25 10:51:11;;;;;;;16.20;4.95;;;410.40;1331.20;;;;;;5091902;28;20031;-67
2021/10/25 10:53:52;;;;;;;8.50;4.40;;;410.40;1331.20;;;;;;5091953;28;20020;-65
2021/10/25 10:56:24;;;;;;;7.68;3.70;;;410.40;1331.20;;;;;;5090125;28;20054;-67
2021/10/25 10:59:06;;;;;;;7.55;4.47;;;410.50;1331.20;;;;;;5092755;28;20373;-67
2021/10/25 11:01:33;;;;;;;8.38;4.68;;;410.50;1331.20;;;;;;5073172;28;20055;-66
2021/10/25 11:04:00;;;;;;;12.23;6.40;;;435.20;1331.20;;;;;;5072961;28;20028;-67
2021/10/25 11:06:34;;;;;;;11.85;6.25;;;435.20;1356.80;;;;;;5073043;28;20059;-65
2021/10/25 11:09:12;;;;;;;11.20;5.50;;;435.30;1331.20;;;;;;5073010;28;20130;-65
2021/10/25 11:11:39;;;;;;;18.52;5.78;;;435.30;1331.20;;;;;;5092260;28;20024;-66
2021/10/25 11:14:12;;;;;;;10.77;5.60;;;435.30;1356.80;;;;;;5093065;28;20020;-65
2021/10/25 11:16:41;;;;;;;22.85;10.70;;;435.40;1305.60;;;;;;5095038;28;20044;-65
2021/10/25 11:19:09;;;;;;;16.67;8.25;;;435.40;1305.60;;;;;;5096583;28;20439;-66
2021/10/25 11:21:51;;;;;;;8.43;5.30;;;435.40;1305.60;;;;;;5097123;28;20020;-66
2021/10/25 11:24:19;;;;;;;10.23;4.97;;;435.50;1305.60;;;;;;5096159;28;20060;-65
2021/10/25 11:26:45;;;;;;;11.60;6.38;;;435.50;1305.60;;;;;;5096605;28;20019;-65
2021/10/25 11:29:15;;;;;;;6.93;4.60;;;435.50;1305.60;;;;;;5096670;28;20020;-66
2021/10/25 11:31:44;;;;;;;9.05;4.90;;;435.50;1280.00;;;;;;5093977;28;20027;-64
2021/10/25 11:34:24;;;;;;;10.80;5.32;;;435.60;1280.00;;;;;;5096752;28;20016;-65
2021/10/25 11:37:02;;;;;;;9.88;5.28;;;435.60;1280.00;;;;;;5095217;28;20024;-65
2021/10/25 11:39:54;;;;;;;9.98;4.93;;;435.60;1280.00;;;;;;5094431;28;20028;-65
2021/10/25 11:42:26;;;;;;;16.05;7.53;;;435.60;1254.40;;;;;;5093420;28;20031;-65
2021/10/25 11:44:58;;;;;;;11.32;5.47;;;435.70;1228.80;;;;;;5095813;28;20020;-66
2021/10/25 11:47:44;;;;;;;10.13;5.35;;;435.70;1228.80;;;;;;5094071;28;20517;-67
2021/10/25 11:50:14;;;;;;;10.35;5.07;;;435.70;1254.40;;;;;;5076351;28;20400;-64
2021/10/25 11:52:58;;;;;;;7.13;4.10;;;435.70;1228.80;;;;;;5093214;28;20027;-64
2021/10/25 11:55:27;;;;;;;8.82;4.65;;;435.70;1228.80;;;;;;5093761;28;20028;-66
2021/10/25 11:57:54;;;;;;;7.13;4.03;;;435.70;1228.80;;;;;;5096311;28;20040;-64
2021/10/25 12:00:22;;;;;;;8.23;4.35;;;435.70;1203.20;;;;;;5095918;28;20039;-66
2021/10/25 12:02:48;;;;;;;7.22;3.72;;;435.70;1203.20;;;;;;5095800;28;20088;-65
2021/10/25 12:05:23;;;;;;;11.50;4.53;;;435.70;1177.60;;;;;;5094955;28;20024;-65
2021/10/25 12:07:58;;;;;;;11.65;3.70;;;435.70;1177.60;;;;;;5093629;28;20053;-65
2021/10/25 12:10:26;;;;;;;10.20;5.10;;;435.70;1177.60;;;;;;5092473;28;20017;-64
2021/10/25 12:13:02;;;;;;;12.02;4.53;;;435.80;1177.60;;;;;;5095753;28;20040;-66
2021/10/25 12:15:31;;;;;;;14.15;8.98;;;435.80;1177.60;;;;;;5093427;28;20458;-65
2021/10/25 12:17:59;;;;;;;9.93;6.85;;;435.80;1177.60;;;;;;5095678;28;20028;-67
2021/10/25 12:20:28;;;;;;;9.68;4.18;;;435.90;1203.20;;;;;;5093216;28;20051;-67
2021/10/25 12:23:00;;;;;;;8.10;4.90;;;435.90;1177.60;;;;;;5095707;28;20091;-64
2021/10/25 12:25:27;;;;;;;8.68;6.25;;;435.90;1177.60;;;;;;5092730;28;20020;-67
2021/10/25 12:27:58;;;;;;;6.90;4.00;;;435.90;1177.60;;;;;;5095820;28;20419;-66
2021/10/25 12:30:26;;;;;;;9.50;4.07;;;436.00;1177.60;;;;;;5092502;28;20024;-65
2021/10/25 12:32:58;;;;;;;9.73;4.03;;;436.00;1152.00;;;;;;5095357;28;20024;-65
2021/10/25 12:35:41;;;;;;;8.82;3.72;;;435.90;1152.00;;;;;;5095057;28;20098;-65
2021/10/25 12:38:22;;;;;;;11.93;4.28;;;436.00;1152.00;;;;;;5094165;28;20028;-66
2021/10/25 12:40:47;;;;;;;8.93;4.30;;;436.00;1152.00;;;;;;5094272;28;20385;-64
2021/10/25 12:43:15;;;;;;;9.25;4.30;;;435.90;1152.00;;;;;;5094784;28;20028;-65
2021/10/25 12:45:45;;;;;;;9.68;4.35;;;436.00;1126.40;;;;;;5094922;28;20511;-67
2021/10/25 12:48:13;;;;;;;11.82;4.28;;;436.00;1126.40;;;;;;5094800;28;20469;-64
2021/10/25 12:50:41;;;;;;;18.25;6.35;;;436.00;1126.40;;;;;;5094642;28;20142;-65
2021/10/25 12:53:13;;;;;;;9.93;4.65;;;435.90;1126.40;;;;;;5094964;28;20611;-65
2021/10/25 12:55:40;;;;;;;15.02;4.65;;;436.00;1100.80;;;;;;5094586;28;20493;-66
2021/10/25 12:58:11;;;;;;;15.73;4.40;;;436.00;1126.40;;;;;;5094830;28;20024;-66
2021/10/25 13:00:38;;;;;;;13.60;5.00;;;435.90;1126.40;;;;;;5093895;28;20020;-66
2021/10/25 13:03:12;;;;;;;16.85;4.70;;;435.90;1126.40;;;;;;5091735;28;20553;-64
2021/10/25 13:05:40;;;;;;;14.52;4.97;;;435.90;1126.40;;;;;;5092831;28;20024;-65
2021/10/25 13:08:07;;;;;;;14.40;4.68;;;435.80;1126.40;;;;;;5090632;28;20391;-63
2021/10/25 13:10:40;;;;;;;17.27;4.20;;;435.80;1126.40;;;;;;5092122;28;20040;-64
2021/10/25 13:13:11;;;;;;;10.38;3.70;;;435.80;1126.40;;;;;;5092111;28;20028;-68
2021/10/25 13:15:41;;;;;;;12.88;5.10;;;435.70;1100.80;;;;;;5092293;28;20028;-64
2021/10/25 13:18:08;;;;;;;13.52;4.72;;;435.70;1126.40;;;;;;5092905;28;20382;-65
2021/10/25 13:20:37;;;;;;;22.13;5.22;;;435.80;1152.00;;;;;;5093048;28;20016;-67
2021/10/25 13:23:04;;;;;;;13.38;3.90;;;435.80;1152.00;;;;;;5092638;28;20032;-67
2021/10/25 13:25:31;;;;;;;8.20;4.00;;;435.70;1126.40;;;;;;5090571;28;20027;-66
2021/10/25 13:27:59;;;;;;;7.35;3.55;;;435.70;1152.00;;;;;;5092748;28;20111;-66
2021/10/25 13:30:26;;;;;;;9.63;3.25;;;435.70;1126.40;;;;;;5092546;28;20067;-65
2021/10/25 13:32:52;;;;;;;7.38;3.25;;;435.70;1126.40;;;;;;5090265;28;20489;-66
2021/10/25 13:35:18;;;;;;;6.28;3.20;;;435.70;1100.80;;;;;;5092776;28;20473;-68
2021/10/25 13:37:51;;;;;;;6.70;3.45;;;435.60;1126.40;;;;;;5091386;28;20066;-68
2021/10/25 13:40:18;;;;;;;8.50;4.55;;;435.60;1126.40;;;;;;5090602;28;20035;-67
2021/10/25 13:42:43;;;;;;;16.27;4.70;;;435.60;1126.40;;;;;;5092388;28;20077;-66
2021/10/25 13:45:10;;;;;;;8.77;4.57;;;435.60;1126.40;;;;;;5092202;28;20111;-67
2021/10/25 13:47:36;;;;;;;16.67;5.15;;;435.60;1126.40;;;;;;5092219;28;20031;-68
2021/10/25 13:50:02;;;;;;;11.57;6.05;;;435.60;1126.40;;;;;;5092275;28;20032;-67
2021/10/25 13:52:28;;;;;;;14.48;6.93;;;435.60;1152.00;;;;;;5091751;28;20147;-66
2021/10/25 13:54:54;;;;;;;13.18;6.35;;;435.60;1126.40;;;;;;5092250;28;20153;-67
2021/10/25 13:57:24;;;;;;;11.00;6.05;;;435.60;1126.40;;;;;;5092637;28;20076;-67
2021/10/25 13:59:50;;;;;;;8.82;4.93;;;435.60;1126.40;;;;;;5089299;28;20036;-66
2021/10/25 14:02:17;;;;;;;10.43;4.93;;;435.50;1126.40;;;;;;5092293;28;20117;-68